createdAt,value
2023-03-18T00:01:09.586Z,2.45
2023-03-18T00:04:11.300Z,2.42
2023-03-18T00:07:12.772Z,1.60
2023-03-18T00:10:14.820Z,1.80
2023-03-18T00:13:16.322Z,2.03
2023-03-18T00:16:18.086Z,2.17
2023-03-18T00:19:19.976Z,2.03
2023-03-18T00:22:21.700Z,2.35
2023-03-18T00:25:23.485Z,2.13
2023-03-18T00:28:25.865Z,1.52
2023-03-18T00:31:28.802Z,2.25
2023-03-18T00:34:31.978Z,2.85
2023-03-18T00:37:35.680Z,1.42
2023-03-18T00:40:53.235Z,2.72
2023-03-18T00:43:55.229Z,2.75
2023-03-18T16:04:33.945Z,9.50
2023-03-18T16:07:35.527Z,12.07
2023-03-18T16:10:37.324Z,3.97
2023-03-18T16:13:39.431Z,7.00
2023-03-18T16:16:41.025Z,2.25
2023-03-18T16:19:43.921Z,5.50
2023-03-18T16:22:45.617Z,2.55
2023-03-18T16:25:49.731Z,3.58
2023-03-18T16:28:51.262Z,3.05
2023-03-18T16:31:52.776Z,4.78
2023-03-18T16:34:54.787Z,3.65
2023-03-18T16:37:56.556Z,3.20
2023-03-18T16:40:58.424Z,2.42
2023-03-18T16:43:59.957Z,2.75
2023-03-18T16:47:02.330Z,2.00
2023-03-18T16:50:06.684Z,3.10
2023-03-18T16:53:34.637Z,3.75
2023-03-18T16:56:36.344Z,2.03
2023-03-18T16:59:38.287Z,9.50
2023-03-18T17:02:40.498Z,4.53
2023-03-18T17:05:46.002Z,2.58
2023-03-18T17:08:47.509Z,2.00
2023-03-18T17:12:02.932Z,2.55
2023-03-18T17:15:05.873Z,1.25
2023-03-18T17:18:13.142Z,1.10
2023-03-18T17:21:15.865Z,3.40
2023-03-18T17:24:17.484Z,3.03
2023-03-18T17:27:29.993Z,3.17
2023-03-18T17:30:39.858Z,3.97
2023-03-18T17:33:42.041Z,7.00
2023-03-18T17:36:44.089Z,4.82
2023-03-18T17:39:45.638Z,3.28
2023-03-18T17:42:49.576Z,6.95
2023-03-18T17:45:51.157Z,5.70
2023-03-18T17:48:52.683Z,5.28
2023-03-18T17:51:55.739Z,5.38
2023-03-18T17:54:57.240Z,5.13
2023-03-18T17:57:58.765Z,8.07
2023-03-18T18:01:11.843Z,6.38
2023-03-18T18:04:24.874Z,6.47
2023-03-18T18:07:26.561Z,6.65
2023-03-18T18:10:28.040Z,7.45
2023-03-18T18:13:29.923Z,4.30
2023-03-18T18:16:31.487Z,4.53
2023-03-18T18:19:33.713Z,7.72
2023-03-18T18:22:35.584Z,5.05
2023-03-18T18:25:37.051Z,6.15
2023-03-18T18:28:43.558Z,4.43
2023-03-18T18:31:45.124Z,2.30
2023-03-18T18:34:46.699Z,4.90
2023-03-18T18:37:49.691Z,6.25
2023-03-18T18:40:53.232Z,4.95
2023-03-18T18:43:55.516Z,2.50
2023-03-18T18:46:57.366Z,10.10
2023-03-18T18:49:58.947Z,4.43
2023-03-18T18:53:01.026Z,7.05
2023-03-18T18:56:13.516Z,7.95
2023-03-18T18:59:22.883Z,3.08
2023-03-18T19:02:29.222Z,6.60
2023-03-18T19:05:30.745Z,7.35
2023-03-18T19:08:36.202Z,7.15
2023-03-18T19:11:37.653Z,3.85
2023-03-18T19:14:39.838Z,2.92
2023-03-18T19:17:42.664Z,4.15
2023-03-18T19:20:44.339Z,4.97
2023-03-18T19:23:45.847Z,3.63
2023-03-18T19:26:47.306Z,3.38
2023-03-18T19:29:49.347Z,2.90
2023-03-18T19:32:51.097Z,6.60
2023-03-18T19:35:52.674Z,3.55
2023-03-18T19:38:55.588Z,3.70
2023-03-18T19:41:57.110Z,3.67
2023-03-18T19:44:58.607Z,3.58
2023-03-18T19:48:00.125Z,1.92
2023-03-18T19:51:01.564Z,2.42
2023-03-18T19:54:18.941Z,2.10
2023-03-18T19:57:24.747Z,3.47
2023-03-18T20:00:26.215Z,3.90
2023-03-18T20:03:28.802Z,10.23
2023-03-18T20:06:30.297Z,4.72
2023-03-18T20:09:31.924Z,6.35
2023-03-18T20:12:41.849Z,5.00
2023-03-18T20:15:43.766Z,5.78
2023-03-18T20:18:45.637Z,5.80
2023-03-18T20:21:49.106Z,8.93
2023-03-18T20:24:50.639Z,11.00
2023-03-18T20:27:55.997Z,16.10
2023-03-18T20:30:59.147Z,14.48
2023-03-18T20:34:00.622Z,16.92
2023-03-18T20:37:02.160Z,19.20
2023-03-18T20:40:07.030Z,16.52
2023-03-18T20:43:19.189Z,14.57
2023-03-18T20:46:23.827Z,19.38
2023-03-18T20:49:27.544Z,16.30
2023-03-18T20:52:30.278Z,16.23
2023-03-18T20:55:33.870Z,15.55
2023-03-18T20:58:35.771Z,15.10
2023-03-18T21:01:37.841Z,17.33
2023-03-18T21:04:39.418Z,20.80
2023-03-18T21:07:41.570Z,15.38
2023-03-18T21:10:43.542Z,16.70
2023-03-18T21:13:45.503Z,13.48
2023-03-18T21:16:47.237Z,13.98
2023-03-18T21:19:49.836Z,14.75
2023-03-18T21:22:51.949Z,15.40
2023-03-18T21:25:54.567Z,17.48
2023-03-18T21:28:57.527Z,15.30
2023-03-18T21:31:59.907Z,15.73
2023-03-18T21:35:01.463Z,14.40
2023-03-18T21:38:03.014Z,14.15
2023-03-18T21:41:16.763Z,12.98
2023-03-18T21:44:18.289Z,15.75
2023-03-18T21:47:22.007Z,12.52
2023-03-18T21:50:26.115Z,12.52
2023-03-18T21:53:28.590Z,12.68
2023-03-18T21:56:30.168Z,12.52
2023-03-18T21:59:31.971Z,12.25
2023-03-18T22:02:37.697Z,22.15
2023-03-18T22:05:39.236Z,11.95
2023-03-18T22:08:40.934Z,11.77
2023-03-18T22:11:42.415Z,11.40
2023-03-18T22:14:43.935Z,13.63
2023-03-18T22:17:45.623Z,14.02
2023-03-18T22:20:50.299Z,14.15
2023-03-18T22:23:52.319Z,11.52
2023-03-18T22:26:53.776Z,11.80
2023-03-18T22:29:57.920Z,10.82
2023-03-18T22:33:01.229Z,11.10
2023-03-18T22:36:02.875Z,15.35
2023-03-18T22:39:04.340Z,11.93
2023-03-18T22:42:06.184Z,11.90
2023-03-18T22:45:21.073Z,15.02
2023-03-18T22:48:22.529Z,13.07
2023-03-18T22:51:26.123Z,10.13
2023-03-18T22:54:27.659Z,8.63
2023-03-18T22:57:29.361Z,8.60
2023-03-18T23:00:30.793Z,9.75
2023-03-18T23:03:34.928Z,8.77
2023-03-18T23:06:36.522Z,9.82
2023-03-18T23:09:50.363Z,10.63
2023-03-18T23:12:57.522Z,7.88
2023-03-18T23:15:59.136Z,10.27
2023-03-18T23:19:00.632Z,9.27
2023-03-18T23:22:02.138Z,8.23
2023-03-18T23:25:03.876Z,10.52
2023-03-18T23:28:05.783Z,10.10
2023-03-18T23:31:08.117Z,7.97
2023-03-18T23:34:09.677Z,9.07
2023-03-18T23:37:12.012Z,8.70
2023-03-18T23:40:13.628Z,11.40
2023-03-18T23:43:15.386Z,8.85
2023-03-18T23:46:16.927Z,10.15
2023-03-18T23:49:18.631Z,8.50
2023-03-18T23:52:20.130Z,10.50
2023-03-18T23:55:45.379Z,9.35
2023-03-18T23:58:43.040Z,12.18
